Time;durP1;ratioP1;P1;durP2;ratioP2;P2;SDS_P1;SDS_P2;PMS_P1;PMS_P2;Temp;Humidity;BMP_temperature;BMP_pressure;BME280_temperature;BME280_humidity;BME280_pressure;Samples;Min_cycle;Max_cycle;Signal;HPM_P1;HPM_P2
2022/10/11 00:00:11;;;;;;;;;;;;;;;;;;4982775;28;19939;-55
2022/10/11 00:02:36;;;;;;;;;;;;;;;;;;4961569;28;19980;-56
2022/10/11 00:05:02;;;;;;;;;;;;;;;;;;4963402;28;19929;-56
2022/10/11 00:07:27;;;;;;;;;;;;;;;;;;4959164;28;19968;-56
2022/10/11 00:09:52;;;;;;;;;;;;;;;;;;4968850;28;19920;-56
2022/10/11 00:12:17;;;;;;;;;;;;;;;;;;4968334;28;20333;-56
2022/10/11 00:14:43;;;;;;;;;;;;;;;;;;4967362;28;19918;-55
2022/10/11 00:17:08;;;;;;;;;;;;;;;;;;4966817;28;19938;-56
2022/10/11 00:19:34;;;;;;;;;;;;;;;;;;4961460;28;19963;-55
2022/10/11 00:21:59;;;;;;;;;;;;;;;;;;4963750;28;20371;-56
2022/10/11 00:24:24;;;;;;;;;;;;;;;;;;4968450;28;20024;-56
2022/10/11 00:26:49;;;;;;;;;;;;;;;;;;4972046;28;19962;-56
2022/10/11 00:29:15;;;;;;;;;;;;;;;;;;4974174;28;19919;-56
2022/10/11 00:31:40;;;;;;;;;;;;;;;;;;4978290;28;19924;-55
2022/10/11 00:34:05;;;;;;;;;;;;;;;;;;4974337;28;19940;-55
2022/10/11 00:36:31;;;;;;;;;;;;;;;;;;4971145;28;19925;-54
2022/10/11 00:38:56;;;;;;;;;;;;;;;;;;4976532;28;20028;-56
2022/10/11 00:41:21;;;;;;;;;;;;;;;;;;4970966;28;19924;-56
2022/10/11 00:43:47;;;;;;;;;;;;;;;;;;4967496;28;19922;-56
2022/10/11 00:46:12;;;;;;;;;;;;;;;;;;4964789;28;20285;-56
2022/10/11 00:48:37;;;;;;;;;;;;;;;;;;4967791;28;20376;-55
2022/10/11 00:51:04;;;;;;;;;;;;;;;;;;4967897;28;20636;-56
2022/10/11 00:53:31;;;;;;;;;;;;;;;;;;4973854;28;20395;-55
2022/10/11 00:56:01;;;;;;;;;;;;;;;;;;4974826;28;19949;-56
2022/10/11 00:58:26;;;;;;;;;;;;;;;;;;4957550;28;19987;-56
2022/10/11 01:00:52;;;;;;;;;;;;;;;;;;4975875;28;20366;-56
2022/10/11 01:03:19;;;;;;;;;;;;;;;;;;4961998;28;19934;-56
2022/10/11 01:05:44;;;;;;;;;;;;;;;;;;4962673;28;20471;-56
2022/10/11 01:08:10;;;;;;;;;;;;;;;;;;4967210;28;20004;-56
2022/10/11 01:10:36;;;;;;;;;;;;;;;;;;4974534;28;19925;-56
2022/10/11 01:13:15;;;;;;;;;;;;;;;;;;4967642;28;19918;-56
2022/10/11 01:15:43;;;;;;;;;;;;;;;;;;4967391;28;19918;-55
2022/10/11 01:18:14;;;;;;;;;;;;;;;;;;4963546;28;19918;-55
2022/10/11 01:20:44;;;;;;;;;;;;;;;;;;4987577;28;19962;-55
2022/10/11 01:23:19;;;;;;;;;;;;;;;;;;4973702;28;20009;-55
2022/10/11 01:25:44;;;;;;;;;;;;;;;;;;4964710;28;20307;-55
2022/10/11 01:28:35;;;;;;;;;;;;;;;;;;4988036;28;19925;-55
2022/10/11 01:31:05;;;;;;;;;;;;;;;;;;4962938;28;19918;-56
2022/10/11 01:33:38;;;;;;;;;;;;;;;;;;4973651;28;19966;-56
2022/10/11 01:36:06;;;;;;;;;;;;;;;;;;4973608;28;19922;-55
2022/10/11 01:38:41;;;;;;;;;;;;;;;;;;4962998;28;19919;-55
2022/10/11 01:41:12;;;;;;;;;;;;;;;;;;4970702;28;20270;-56
2022/10/11 01:43:37;;;;;;;;;;;;;;;;;;4968191;28;19922;-55
2022/10/11 01:46:04;;;;;;;;;;;;;;;;;;4980004;28;19929;-55
2022/10/11 01:48:29;;;;;;;;;;;;;;;;;;4979113;28;19918;-56
2022/10/11 01:50:56;;;;;;;;;;;;;;;;;;4975352;28;19925;-55
2022/10/11 01:53:27;;;;;;;;;;;;;;;;;;4974160;28;20406;-56
2022/10/11 01:55:58;;;;;;;;;;;;;;;;;;4966493;28;19967;-56
2022/10/11 01:58:23;;;;;;;;;;;;;;;;;;4964219;28;20123;-56
2022/10/11 02:01:04;;;;;;;;;;;;;;;;;;4976810;28;20428;-56
2022/10/11 02:03:36;;;;;;;;;;;;;;;;;;4965847;28;19945;-56
2022/10/11 02:06:01;;;;;;;;;;;;;;;;;;4967832;28;19971;-56
2022/10/11 02:08:26;;;;;;;;;;;;;;;;;;4971661;28;19918;-56
2022/10/11 02:11:01;;;;;;;;;;;;;;;;;;4968890;28;19922;-55
2022/10/11 02:13:35;;;;;;;;;;;;;;;;;;4970343;28;20307;-56
2022/10/11 02:16:02;;;;;;;;;;;;;;;;;;4965501;28;19921;-55
2022/10/11 02:18:31;;;;;;;;;;;;;;;;;;4976510;28;19922;-56
2022/10/11 02:20:59;;;;;;;;;;;;;;;;;;4961875;28;19925;-56
2022/10/11 02:23:28;;;;;;;;;;;;;;;;;;4967986;28;19940;-56
2022/10/11 02:25:55;;;;;;;;;;;;;;;;;;4975400;28;19948;-56
2022/10/11 02:28:22;;;;;;;;;;;;;;;;;;4967497;28;19914;-55
2022/10/11 02:30:49;;;;;;;;;;;;;;;;;;4973264;28;19946;-55
2022/10/11 02:33:17;;;;;;;;;;;;;;;;;;4980913;28;19922;-57
2022/10/11 02:35:44;;;;;;;;;;;;;;;;;;4978265;28;19976;-56
2022/10/11 02:38:23;;;;;;;;;;;;;;;;;;4970775;28;19919;-56
2022/10/11 02:41:04;;;;;;;;;;;;;;;;;;4973286;28;19929;-56
2022/10/11 02:43:35;;;;;;;;;;;;;;;;;;4962425;28;19934;-56
2022/10/11 02:46:01;;;;;;;;;;;;;;;;;;4961436;28;20007;-55
2022/10/11 02:48:28;;;;;;;;;;;;;;;;;;4977445;28;19969;-56
2022/10/11 02:50:54;;;;;;;;;;;;;;;;;;4982881;28;20338;-56
2022/10/11 02:53:20;;;;;;;;;;;;;;;;;;4979541;28;19944;-56
2022/10/11 02:55:47;;;;;;;;;;;;;;;;;;4977517;28;19922;-56
2022/10/11 02:58:12;;;;;;;;;;;;;;;;;;4977375;28;20353;-56
2022/10/11 03:00:37;;;;;;;;;;;;;;;;;;4965459;28;19917;-56
2022/10/11 03:03:02;;;;;;;;;;;;;;;;;;4960826;28;19929;-56
2022/10/11 03:05:28;;;;;;;;;;;;;;;;;;4962422;28;19918;-55
2022/10/11 03:07:53;;;;;;;;;;;;;;;;;;4966863;28;20017;-55
2022/10/11 03:10:18;;;;;;;;;;;;;;;;;;4966388;28;19918;-56
2022/10/11 03:12:43;;;;;;;;;;;;;;;;;;4975835;28;19963;-56
2022/10/11 03:15:09;;;;;;;;;;;;;;;;;;4961120;28;20394;-55
2022/10/11 03:17:34;;;;;;;;;;;;;;;;;;4971864;28;19918;-56
2022/10/11 03:19:59;;;;;;;;;;;;;;;;;;4967122;28;20372;-55
2022/10/11 03:22:25;;;;;;;;;;;;;;;;;;4980150;28;19926;-56
2022/10/11 03:24:50;;;;;;;;;;;;;;;;;;4977449;28;19918;-55
2022/10/11 03:27:15;;;;;;;;;;;;;;;;;;4960470;28;20419;-56
2022/10/11 03:29:40;;;;;;;;;;;;;;;;;;4971370;28;19971;-56
2022/10/11 03:32:06;;;;;;;;;;;;;;;;;;4966250;28;20407;-56
2022/10/11 03:34:31;;;;;;;;;;;;;;;;;;4971754;28;20064;-56
2022/10/11 03:36:56;;;;;;;;;;;;;;;;;;4970602;28;19925;-56
2022/10/11 03:39:22;;;;;;;;;;;;;;;;;;4974949;28;19918;-56
2022/10/11 03:41:47;;;;;;;;;;;;;;;;;;4963131;28;19918;-55
2022/10/11 03:44:12;;;;;;;;;;;;;;;;;;4986711;28;19924;-56
2022/10/11 03:46:37;;;;;;;;;;;;;;;;;;4975642;28;20382;-56
2022/10/11 03:49:03;;;;;;;;;;;;;;;;;;4979541;28;20372;-55
2022/10/11 03:51:28;;;;;;;;;;;;;;;;;;4974650;28;19961;-56
2022/10/11 03:53:53;;;;;;;;;;;;;;;;;;4982914;28;19926;-56
2022/10/11 03:56:18;;;;;;;;;;;;;;;;;;4980474;28;19927;-55
2022/10/11 03:58:44;;;;;;;;;;;;;;;;;;4979340;28;20340;-56
2022/10/11 04:01:09;;;;;;;;;;;;;;;;;;4961749;28;19945;-55
2022/10/11 04:03:34;;;;;;;;;;;;;;;;;;4963058;28;20310;-55
2022/10/11 04:06:00;;;;;;;;;;;;;;;;;;4961480;28;19918;-55
2022/10/11 04:08:25;;;;;;;;;;;;;;;;;;4968324;28;19926;-55
2022/10/11 04:10:50;;;;;;;;;;;;;;;;;;4992926;28;19972;-56
2022/10/11 04:13:16;;;;;;;;;;;;;;;;;;4954121;28;19922;-55
2022/10/11 04:15:41;;;;;;;;;;;;;;;;;;4983253;28;19916;-55
2022/10/11 04:18:07;;;;;;;;;;;;;;;;;;4971449;28;19926;-56
2022/10/11 04:20:32;;;;;;;;;;;;;;;;;;4966700;28;19980;-55
2022/10/11 04:22:58;;;;;;;;;;;;;;;;;;4959306;28;19918;-55
2022/10/11 04:25:23;;;;;;;;;;;;;;;;;;4974689;28;20006;-56
2022/10/11 04:27:48;;;;;;;;;;;;;;;;;;4972639;28;19918;-56
2022/10/11 04:30:14;;;;;;;;;;;;;;;;;;4976274;28;19927;-56
2022/10/11 04:32:39;;;;;;;;;;;;;;;;;;4972210;28;20375;-55
2022/10/11 04:35:05;;;;;;;;;;;;;;;;;;4977402;28;19972;-55
2022/10/11 04:37:30;;;;;;;;;;;;;;;;;;4975610;28;19917;-56
2022/10/11 04:39:56;;;;;;;;;;;;;;;;;;4974927;28;20494;-56
2022/10/11 04:42:21;;;;;;;;;;;;;;;;;;4957900;28;19919;-56
2022/10/11 04:44:46;;;;;;;;;;;;;;;;;;4954258;28;19929;-56
2022/10/11 04:47:11;;;;;;;;;;;;;;;;;;4964581;28;20420;-56
2022/10/11 04:49:37;;;;;;;;;;;;;;;;;;4971575;28;19926;-56
2022/10/11 04:52:02;;;;;;;;;;;;;;;;;;4969399;28;20366;-56
2022/10/11 04:54:27;;;;;;;;;;;;;;;;;;4979833;28;20000;-56
2022/10/11 04:56:53;;;;;;;;;;;;;;;;;;4980965;28;20017;-56
2022/10/11 04:59:18;;;;;;;;;;;;;;;;;;4972703;28;19918;-56
2022/10/11 05:01:43;;;;;;;;;;;;;;;;;;4962267;28;19965;-56
2022/10/11 05:04:09;;;;;;;;;;;;;;;;;;4971440;28;19922;-58
2022/10/11 05:06:34;;;;;;;;;;;;;;;;;;4975866;28;19925;-58
2022/10/11 05:08:59;;;;;;;;;;;;;;;;;;4974647;28;19940;-58
2022/10/11 05:11:24;;;;;;;;;;;;;;;;;;4967785;28;19972;-58
2022/10/11 05:13:50;;;;;;;;;;;;;;;;;;4971075;28;20304;-58
2022/10/11 05:16:15;;;;;;;;;;;;;;;;;;4976492;28;19918;-55
2022/10/11 05:18:41;;;;;;;;;;;;;;;;;;4988182;28;19956;-58
2022/10/11 05:21:17;;;;;;;;;;;;;;;;;;4972612;28;19968;-59
2022/10/11 05:23:42;;;;;;;;;;;;;;;;;;4960650;28;19922;-58
2022/10/11 05:26:08;;;;;;;;;;;;;;;;;;4974237;28;19925;-59
2022/10/11 05:28:33;;;;;;;;;;;;;;;;;;4986466;28;19923;-58
2022/10/11 05:30:59;;;;;;;;;;;;;;;;;;4975791;28;19919;-58
2022/10/11 05:33:24;;;;;;;;;;;;;;;;;;4975974;28;20369;-58
2022/10/11 05:35:50;;;;;;;;;;;;;;;;;;4977043;28;20005;-58
2022/10/11 05:38:15;;;;;;;;;;;;;;;;;;4981621;28;19927;-58
2022/10/11 05:40:40;;;;;;;;;;;;;;;;;;4978247;28;19914;-58
2022/10/11 05:43:06;;;;;;;;;;;;;;;;;;4979796;28;19914;-58
2022/10/11 05:45:34;;;;;;;;;;;;;;;;;;4965371;28;20009;-59
2022/10/11 05:47:59;;;;;;;;;;;;;;;;;;4989560;28;19960;-58
2022/10/11 05:50:24;;;;;;;;;;;;;;;;;;4980956;28;19914;-58
2022/10/11 05:52:50;;;;;;;;;;;;;;;;;;4976887;28;19960;-58
2022/10/11 05:55:15;;;;;;;;;;;;;;;;;;4980913;28;19925;-58
2022/10/11 05:57:40;;;;;;;;;;;;;;;;;;4968879;28;20272;-58
2022/10/11 06:00:06;;;;;;;;;;;;;;;;;;4960113;28;19925;-58
2022/10/11 06:02:32;;;;;;;;;;;;;;;;;;4971353;28;19915;-59
2022/10/11 06:04:57;;;;;;;;;;;;;;;;;;4966043;28;19973;-58
2022/10/11 06:07:22;;;;;;;;;;;;;;;;;;4970431;28;20369;-58
2022/10/11 06:09:48;;;;;;;;;;;;;;;;;;4983742;28;19913;-58
2022/10/11 06:12:14;;;;;;;;;;;;;;;;;;4978039;28;19918;-58
2022/10/11 06:14:39;;;;;;;;;;;;;;;;;;4980260;28;19918;-58
2022/10/11 06:17:04;;;;;;;;;;;;;;;;;;4980619;28;20273;-58
2022/10/11 06:19:29;;;;;;;;;;;;;;;;;;4987548;28;20043;-58
2022/10/11 06:21:55;;;;;;;;;;;;;;;;;;4980177;28;19914;-58
2022/10/11 06:24:20;;;;;;;;;;;;;;;;;;4980317;28;19957;-58
2022/10/11 06:26:47;;;;;;;;;;;;;;;;;;4980245;28;19914;-59
2022/10/11 06:29:12;;;;;;;;;;;;;;;;;;4982750;28;19918;-59
2022/10/11 06:31:37;;;;;;;;;;;;;;;;;;4976880;28;20293;-59
2022/10/11 06:34:03;;;;;;;;;;;;;;;;;;4977170;28;19975;-59
2022/10/11 06:36:28;;;;;;;;;;;;;;;;;;4978467;28;20411;-59
2022/10/11 06:38:54;;;;;;;;;;;;;;;;;;4974530;28;19926;-59
2022/10/11 06:41:23;;;;;;;;;;;;;;;;;;4985251;28;19917;-58
2022/10/11 06:43:49;;;;;;;;;;;;;;;;;;4976628;28;20013;-59
2022/10/11 06:46:15;;;;;;;;;;;;;;;;;;4964822;28;20337;-57
2022/10/11 06:48:42;;;;;;;;;;;;;;;;;;4961709;28;20323;-57
2022/10/11 06:51:08;;;;;;;;;;;;;;;;;;4985838;28;19916;-58
2022/10/11 06:53:33;;;;;;;;;;;;;;;;;;4974737;28;20292;-58
2022/10/11 06:56:05;;;;;;;;;;;;;;;;;;4963190;28;19971;-58
2022/10/11 06:58:30;;;;;;;;;;;;;;;;;;4964221;28;20103;-58
2022/10/11 07:01:03;;;;;;;;;;;;;;;;;;4959651;28;20387;-58
2022/10/11 07:03:28;;;;;;;;;;;;;;;;;;4958827;28;19922;-59
2022/10/11 07:06:04;;;;;;;;;;;;;;;;;;4971956;28;20311;-58
2022/10/11 07:08:29;;;;;;;;;;;;;;;;;;4977941;28;19914;-58
2022/10/11 07:10:58;;;;;;;;;;;;;;;;;;4980014;28;19946;-58
2022/10/11 07:13:24;;;;;;;;;;;;;;;;;;4974913;28;20417;-58
2022/10/11 07:15:49;;;;;;;;;;;;;;;;;;4978890;28;19925;-58
2022/10/11 07:18:14;;;;;;;;;;;;;;;;;;4980076;28;19922;-59
2022/10/11 07:20:39;;;;;;;;;;;;;;;;;;4988385;28;20435;-59
2022/10/11 07:23:05;;;;;;;;;;;;;;;;;;4978953;28;19924;-61
2022/10/11 07:25:30;;;;;;;;;;;;;;;;;;4979238;28;19941;-60
2022/10/11 07:27:55;;;;;;;;;;;;;;;;;;4979505;28;19914;-61
2022/10/11 07:30:20;;;;;;;;;;;;;;;;;;4990320;28;20316;-60
2022/10/11 07:32:46;;;;;;;;;;;;;;;;;;4978865;28;19914;-60
2022/10/11 07:35:11;;;;;;;;;;;;;;;;;;4967835;28;19918;-60
2022/10/11 07:37:36;;;;;;;;;;;;;;;;;;4978229;28;19960;-60
2022/10/11 07:40:02;;;;;;;;;;;;;;;;;;4986545;28;19914;-61
2022/10/11 07:42:27;;;;;;;;;;;;;;;;;;4982059;28;19960;-60
2022/10/11 07:44:52;;;;;;;;;;;;;;;;;;4979111;28;19922;-60
2022/10/11 07:47:18;;;;;;;;;;;;;;;;;;4979287;28;20435;-60
2022/10/11 07:49:43;;;;;;;;;;;;;;;;;;4968463;28;19918;-59
2022/10/11 07:52:08;;;;;;;;;;;;;;;;;;4987328;28;19916;-59
2022/10/11 07:54:33;;;;;;;;;;;;;;;;;;4966542;28;19922;-60
2022/10/11 07:56:59;;;;;;;;;;;;;;;;;;4969970;28;20008;-60
2022/10/11 07:59:24;;;;;;;;;;;;;;;;;;4964459;28;20038;-59
2022/10/11 08:01:49;;;;;;;;;;;;;;;;;;4966943;28;20298;-60
2022/10/11 08:04:15;;;;;;;;;;;;;;;;;;4961970;28;20056;-60
2022/10/11 08:06:41;;;;;;;;;;;;;;;;;;4966773;28;19930;-59
2022/10/11 08:09:06;;;;;;;;;;;;;;;;;;4966682;28;20013;-59
2022/10/11 08:11:33;;;;;;;;;;;;;;;;;;4976071;28;20356;-59
2022/10/11 08:13:59;;;;;;;;;;;;;;;;;;4965812;28;19918;-59
2022/10/11 08:16:24;;;;;;;;;;;;;;;;;;4970548;28;19922;-58
2022/10/11 08:18:50;;;;;;;;;;;;;;;;;;4962508;28;20009;-58
2022/10/11 08:21:16;;;;;;;;;;;;;;;;;;4972659;28;20415;-58
2022/10/11 08:23:41;;;;;;;;;;;;;;;;;;4975455;28;20075;-58
2022/10/11 08:26:08;;;;;;;;;;;;;;;;;;4976729;28;20302;-58
2022/10/11 08:28:33;;;;;;;;;;;;;;;;;;4980872;28;19918;-58
2022/10/11 08:30:58;;;;;;;;;;;;;;;;;;4972243;28;19918;-58
2022/10/11 08:33:24;;;;;;;;;;;;;;;;;;4991460;28;20373;-58
2022/10/11 08:35:51;;;;;;;;;;;;;;;;;;4977744;28;19930;-58
2022/10/11 08:38:16;;;;;;;;;;;;;;;;;;4977894;28;19918;-58
2022/10/11 08:40:55;;;;;;;;;;;;;;;;;;4982194;28;19914;-58
2022/10/11 08:43:33;;;;;;;;;;;;;;;;;;4978643;28;19923;-58
2022/10/11 08:46:00;;;;;;;;;;;;;;;;;;4963766;28;19944;-58
2022/10/11 08:48:35;;;;;;;;;;;;;;;;;;4980818;28;20219;-58
2022/10/11 08:51:03;;;;;;;;;;;;;;;;;;4992328;28;20011;-59
2022/10/11 08:53:47;;;;;;;;;;;;;;;;;;4967331;28;19992;-58
2022/10/11 08:56:13;;;;;;;;;;;;;;;;;;4955914;28;20303;-58
2022/10/11 08:58:43;;;;;;;;;;;;;;;;;;4971856;28;19975;-58
2022/10/11 09:01:13;;;;;;;;;;;;;;;;;;4964232;28;19925;-58
2022/10/11 09:03:40;;;;;;;;;;;;;;;;;;4960139;28;19930;-59
2022/10/11 09:06:24;;;;;;;;;;;;;;;;;;4976441;28;20391;-58
2022/10/11 09:08:55;;;;;;;;;;;;;;;;;;4977925;28;19978;-58
2022/10/11 09:11:39;;;;;;;;;;;;;;;;;;4971865;28;20330;-59
2022/10/11 09:14:16;;;;;;;;;;;;;;;;;;4977300;28;19918;-59
2022/10/11 09:16:48;;;;;;;;;;;;;;;;;;4979697;28;19966;-59
2022/10/11 09:19:32;;;;;;;;;;;;;;;;;;4978178;28;19924;-59
2022/10/11 09:22:03;;;;;;;;;;;;;;;;;;4979351;28;20273;-59
2022/10/11 09:24:46;;;;;;;;;;;;;;;;;;4991208;28;20340;-58
2022/10/11 09:27:29;;;;;;;;;;;;;;;;;;4966678;28;19968;-57
2022/10/11 09:30:01;;;;;;;;;;;;;;;;;;4980205;28;19961;-57
2022/10/11 09:32:37;;;;;;;;;;;;;;;;;;4967002;28;19914;-60
2022/10/11 09:35:17;;;;;;;;;;;;;;;;;;4977717;28;19918;-59
2022/10/11 09:37:54;;;;;;;;;;;;;;;;;;4962412;28;19924;-59
2022/10/11 09:40:19;;;;;;;;;;;;;;;;;;4972594;28;20401;-60
2022/10/11 09:42:45;;;;;;;;;;;;;;;;;;4970985;28;19942;-59
2022/10/11 09:45:16;;;;;;;;;;;;;;;;;;4977942;28;20355;-59
2022/10/11 09:47:42;;;;;;;;;;;;;;;;;;4964171;28;19964;-60
2022/10/11 09:50:13;;;;;;;;;;;;;;;;;;4982015;28;19961;-59
2022/10/11 09:52:47;;;;;;;;;;;;;;;;;;4971640;28;19918;-59
2022/10/11 09:55:28;;;;;;;;;;;;;;;;;;4964741;28;20289;-59
2022/10/11 09:57:53;;;;;;;;;;;;;;;;;;4971845;28;20370;-59
2022/10/11 10:00:23;;;;;;;;;;;;;;;;;;4966746;28;20009;-59
2022/10/11 10:02:52;;;;;;;;;;;;;;;;;;4959008;28;20358;-59
2022/10/11 10:05:22;;;;;;;;;;;;;;;;;;4974094;28;20312;-58
2022/10/11 10:07:56;;;;;;;;;;;;;;;;;;4978830;28;20336;-58
2022/10/11 10:10:22;;;;;;;;;;;;;;;;;;4969756;28;19918;-59
2022/10/11 10:12:52;;;;;;;;;;;;;;;;;;4968183;28;20005;-59
2022/10/11 10:15:18;;;;;;;;;;;;;;;;;;4964197;28;20307;-59
2022/10/11 10:17:50;;;;;;;;;;;;;;;;;;4979098;28;19919;-59
2022/10/11 10:20:23;;;;;;;;;;;;;;;;;;4972822;28;20371;-59
2022/10/11 10:22:49;;;;;;;;;;;;;;;;;;4973554;28;20034;-59
2022/10/11 10:25:23;;;;;;;;;;;;;;;;;;4978013;28;19935;-59
2022/10/11 10:27:56;;;;;;;;;;;;;;;;;;4973522;28;19925;-59
2022/10/11 10:30:21;;;;;;;;;;;;;;;;;;4980187;28;20005;-59
2022/10/11 10:33:04;;;;;;;;;;;;;;;;;;4979601;28;20419;-59
2022/10/11 10:35:31;;;;;;;;;;;;;;;;;;4977519;28;20340;-59
2022/10/11 10:37:56;;;;;;;;;;;;;;;;;;4980112;28;20012;-58
2022/10/11 10:40:26;;;;;;;;;;;;;;;;;;4974802;28;20025;-59
2022/10/11 10:42:52;;;;;;;;;;;;;;;;;;4983174;28;20506;-58
2022/10/11 10:45:17;;;;;;;;;;;;;;;;;;4977936;28;19920;-58
2022/10/11 10:47:43;;;;;;;;;;;;;;;;;;4973330;28;20303;-58
2022/10/11 10:50:34;;;;;;;;;;;;;;;;;;4975332;28;19922;-59
2022/10/11 10:53:18;;;;;;;;;;;;;;;;;;4961136;28;19921;-59
2022/10/11 10:55:44;;;;;;;;;;;;;;;;;;4963720;28;19929;-58
2022/10/11 10:58:16;;;;;;;;;;;;;;;;;;4965191;28;20180;-59
2022/10/11 11:00:45;;;;;;;;;;;;;;;;;;4975327;28;19925;-58
2022/10/11 11:03:16;;;;;;;;;;;;;;;;;;4973874;28;20383;-58
2022/10/11 11:05:47;;;;;;;;;;;;;;;;;;4973998;28;20292;-59
2022/10/11 11:08:25;;;;;;;;;;;;;;;;;;4962192;28;20366;-59
2022/10/11 11:11:11;;;;;;;;;;;;;;;;;;4963014;28;20384;-58
2022/10/11 11:13:39;;;;;;;;;;;;;;;;;;4971929;28;20574;-59
2022/10/11 11:16:19;;;;;;;;;;;;;;;;;;4987345;28;19922;-58
2022/10/11 11:18:56;;;;;;;;;;;;;;;;;;4978106;28;19926;-58
2022/10/11 11:21:31;;;;;;;;;;;;;;;;;;4966470;28;19973;-59
2022/10/11 11:24:14;;;;;;;;;;;;;;;;;;4973903;28;19929;-59
2022/10/11 11:26:55;;;;;;;;;;;;;;;;;;4967232;28;19934;-59
2022/10/11 11:29:23;;;;;;;;;;;;;;;;;;4966605;28;20318;-59
2022/10/11 11:32:04;;;;;;;;;;;;;;;;;;4963052;28;19922;-60
2022/10/11 11:34:36;;;;;;;;;;;;;;;;;;4975305;28;19929;-59
2022/10/11 11:37:22;;;;;;;;;;;;;;;;;;4978559;28;20452;-59
2022/10/11 11:39:49;;;;;;;;;;;;;;;;;;4977756;28;19918;-58
2022/10/11 11:42:23;;;;;;;;;;;;;;;;;;4972914;28;19922;-59
2022/10/11 11:44:49;;;;;;;;;;;;;;;;;;4977547;28;19930;-59
2022/10/11 11:47:19;;;;;;;;;;;;;;;;;;4977248;28;19965;-59
2022/10/11 11:49:52;;;;;;;;;;;;;;;;;;4972543;28;20403;-58
2022/10/11 11:52:34;;;;;;;;;;;;;;;;;;4955977;28;19949;-55
2022/10/11 11:55:03;;;;;;;;;;;;;;;;;;4967575;28;20372;-55
2022/10/11 11:57:40;;;;;;;;;;;;;;;;;;4968475;28;19951;-54
2022/10/11 12:00:05;;;;;;;;;;;;;;;;;;4963892;28;19926;-54
2022/10/11 12:02:31;;;;;;;;;;;;;;;;;;4963287;28;19918;-54
2022/10/11 12:04:58;;;;;;;;;;;;;;;;;;4974061;28;20220;-54
2022/10/11 12:07:25;;;;;;;;;;;;;;;;;;4971468;28;19922;-54
2022/10/11 12:09:53;;;;;;;;;;;;;;;;;;4984334;28;19999;-53
2022/10/11 12:12:32;;;;;;;;;;;;;;;;;;4977950;28;20009;-54
2022/10/11 12:15:07;;;;;;;;;;;;;;;;;;4970887;28;19918;-55
2022/10/11 12:17:32;;;;;;;;;;;;;;;;;;4983388;28;19920;-59
2022/10/11 12:20:02;;;;;;;;;;;;;;;;;;4970212;28;19919;-60
2022/10/11 12:22:27;;;;;;;;;;;;;;;;;;4973918;28;19954;-60
2022/10/11 12:24:56;;;;;;;;;;;;;;;;;;4960066;28;20398;-59
2022/10/11 12:27:41;;;;;;;;;;;;;;;;;;4976311;28;20136;-60
2022/10/11 12:30:25;;;;;;;;;;;;;;;;;;4962262;28;20272;-60
2022/10/11 12:32:51;;;;;;;;;;;;;;;;;;4972406;28;19926;-59
2022/10/11 12:35:32;;;;;;;;;;;;;;;;;;4985657;28;20362;-59
2022/10/11 12:38:03;;;;;;;;;;;;;;;;;;4967987;28;19919;-59
2022/10/11 12:40:33;;;;;;;;;;;;;;;;;;4963547;28;19922;-58
2022/10/11 12:43:10;;;;;;;;;;;;;;;;;;4987148;28;20020;-59
2022/10/11 12:45:36;;;;;;;;;;;;;;;;;;4966512;28;21747;-59
2022/10/11 12:48:08;;;;;;;;;;;;;;;;;;4975238;28;19957;-59
2022/10/11 12:50:43;;;;;;;;;;;;;;;;;;4963711;28;20018;-58
2022/10/11 12:53:08;;;;;;;;;;;;;;;;;;4957233;28;20059;-59
2022/10/11 12:55:39;;;;;;;;;;;;;;;;;;4963033;28;20431;-59
2022/10/11 12:58:20;;;;;;;;;;;;;;;;;;4955131;28;19925;-59
2022/10/11 13:00:51;;;;;;;;;;;;;;;;;;4973977;28;20401;-59
2022/10/11 13:03:25;;;;;;;;;;;;;;;;;;4965473;28;20292;-59
2022/10/11 13:05:53;;;;;;;;;;;;;;;;;;4970600;28;20016;-59
2022/10/11 13:08:24;;;;;;;;;;;;;;;;;;4978748;28;19926;-59
2022/10/11 13:10:50;;;;;;;;;;;;;;;;;;4981015;28;19965;-58
2022/10/11 13:13:18;;;;;;;;;;;;;;;;;;4961671;28;20371;-59
2022/10/11 13:15:44;;;;;;;;;;;;;;;;;;4979188;28;19921;-59
2022/10/11 13:18:13;;;;;;;;;;;;;;;;;;4967867;28;20277;-59
2022/10/11 13:20:39;;;;;;;;;;;;;;;;;;4979190;28;19947;-58
2022/10/11 13:23:17;;;;;;;;;;;;;;;;;;4975486;28;19914;-58
2022/10/11 13:25:42;;;;;;;;;;;;;;;;;;4976980;28;19929;-58
2022/10/11 13:28:08;;;;;;;;;;;;;;;;;;4982154;28;19926;-59
2022/10/11 13:30:34;;;;;;;;;;;;;;;;;;4966181;28;19915;-58
2022/10/11 13:33:00;;;;;;;;;;;;;;;;;;4972793;28;19918;-59
2022/10/11 13:35:29;;;;;;;;;;;;;;;;;;4980575;28;19925;-59
2022/10/11 13:37:54;;;;;;;;;;;;;;;;;;4981767;28;20051;-59
2022/10/11 13:40:20;;;;;;;;;;;;;;;;;;4971683;28;19944;-59
2022/10/11 13:42:47;;;;;;;;;;;;;;;;;;4969169;28;19915;-59
2022/10/11 13:45:13;;;;;;;;;;;;;;;;;;4975686;28;19922;-58
2022/10/11 13:47:38;;;;;;;;;;;;;;;;;;4981667;28;19941;-59
2022/10/11 13:50:29;;;;;;;;;;;;;;;;;;4966549;28;20365;-59
2022/10/11 13:52:54;;;;;;;;;;;;;;;;;;4962058;28;19934;-58
2022/10/11 13:55:39;;;;;;;;;;;;;;;;;;4972128;28;19945;-59
2022/10/11 13:58:09;;;;;;;;;;;;;;;;;;4980667;28;19918;-59
2022/10/11 14:00:38;;;;;;;;;;;;;;;;;;4974078;28;19922;-58
2022/10/11 14:03:12;;;;;;;;;;;;;;;;;;4971202;28;19999;-58
2022/10/11 14:05:40;;;;;;;;;;;;;;;;;;4985985;28;19922;-58
2022/10/11 14:08:25;;;;;;;;;;;;;;;;;;4972541;28;20017;-58
2022/10/11 14:10:51;;;;;;;;;;;;;;;;;;4976103;28;19918;-59
2022/10/11 14:13:19;;;;;;;;;;;;;;;;;;4971890;28;19922;-58
2022/10/11 14:15:44;;;;;;;;;;;;;;;;;;4977029;28;19925;-59
2022/10/11 14:18:28;;;;;;;;;;;;;;;;;;4977623;28;19922;-59
2022/10/11 14:20:54;;;;;;;;;;;;;;;;;;4977932;28;19932;-58
2022/10/11 14:23:19;;;;;;;;;;;;;;;;;;4983432;28;19918;-59
2022/10/11 14:25:45;;;;;;;;;;;;;;;;;;4977355;28;19923;-59
2022/10/11 14:28:11;;;;;;;;;;;;;;;;;;4977815;28;20271;-59
2022/10/11 14:30:39;;;;;;;;;;;;;;;;;;4977456;28;20303;-59
2022/10/11 14:33:04;;;;;;;;;;;;;;;;;;4976681;28;20417;-58
2022/10/11 14:35:31;;;;;;;;;;;;;;;;;;4968224;28;19918;-59
2022/10/11 14:37:56;;;;;;;;;;;;;;;;;;4980300;28;20323;-59
2022/10/11 14:40:23;;;;;;;;;;;;;;;;;;4977736;28;19922;-58
2022/10/11 14:42:48;;;;;;;;;;;;;;;;;;4980794;28;19941;-59
2022/10/11 14:45:14;;;;;;;;;;;;;;;;;;4984819;28;19922;-58
2022/10/11 14:47:40;;;;;;;;;;;;;;;;;;4969616;28;20308;-59
2022/10/11 14:50:35;;;;;;;;;;;;;;;;;;4966541;28;19918;-59
2022/10/11 14:53:00;;;;;;;;;;;;;;;;;;4979080;28;19923;-59
2022/10/11 14:55:26;;;;;;;;;;;;;;;;;;4971708;28;20418;-59
2022/10/11 14:57:51;;;;;;;;;;;;;;;;;;4969682;28;20040;-58
2022/10/11 15:00:19;;;;;;;;;;;;;;;;;;4971452;28;20388;-58
2022/10/11 15:02:44;;;;;;;;;;;;;;;;;;4983989;28;19916;-59
2022/10/11 15:05:09;;;;;;;;;;;;;;;;;;4977508;28;20312;-59
2022/10/11 15:07:35;;;;;;;;;;;;;;;;;;4975432;28;19934;-59
2022/10/11 15:10:00;;;;;;;;;;;;;;;;;;4972260;28;19926;-59
2022/10/11 15:12:25;;;;;;;;;;;;;;;;;;4972248;28;20362;-59
2022/10/11 15:14:51;;;;;;;;;;;;;;;;;;4963660;28;19927;-58
2022/10/11 15:17:16;;;;;;;;;;;;;;;;;;4968557;28;20172;-59
2022/10/11 15:19:41;;;;;;;;;;;;;;;;;;4964830;28;19925;-59
2022/10/11 15:22:06;;;;;;;;;;;;;;;;;;4984473;28;19925;-58
2022/10/11 15:24:32;;;;;;;;;;;;;;;;;;4973010;28;19971;-59
2022/10/11 15:26:57;;;;;;;;;;;;;;;;;;4960945;28;19924;-59
2022/10/11 15:29:23;;;;;;;;;;;;;;;;;;4954868;28;20139;-59
2022/10/11 15:31:48;;;;;;;;;;;;;;;;;;4961865;28;19918;-59
2022/10/11 15:34:14;;;;;;;;;;;;;;;;;;4963887;28;19920;-58
2022/10/11 15:36:39;;;;;;;;;;;;;;;;;;4958133;28;20073;-59
2022/10/11 15:39:21;;;;;;;;;;;;;;;;;;4956091;28;19918;-58
2022/10/11 15:41:46;;;;;;;;;;;;;;;;;;4963036;28;19961;-59
2022/10/11 15:44:12;;;;;;;;;;;;;;;;;;4969137;28;19970;-58
2022/10/11 15:46:40;;;;;;;;;;;;;;;;;;4956162;28;19926;-58
2022/10/11 15:49:10;;;;;;;;;;;;;;;;;;4956985;28;19918;-58
2022/10/11 15:51:35;;;;;;;;;;;;;;;;;;4958830;28;19919;-58
2022/10/11 15:54:00;;;;;;;;;;;;;;;;;;4959326;28;19967;-59
2022/10/11 15:56:26;;;;;;;;;;;;;;;;;;4960517;28;20417;-59
2022/10/11 15:58:51;;;;;;;;;;;;;;;;;;4963342;28;20020;-58
2022/10/11 16:01:18;;;;;;;;;;;;;;;;;;4959543;28;19972;-58
2022/10/11 16:03:44;;;;;;;;;;;;;;;;;;4961257;28;19919;-58
2022/10/11 16:06:09;;;;;;;;;;;;;;;;;;4952798;28;19961;-58
2022/10/11 16:08:35;;;;;;;;;;;;;;;;;;4957756;28;19949;-59
2022/10/11 16:11:01;;;;;;;;;;;;;;;;;;4967573;28;19918;-58
2022/10/11 16:13:26;;;;;;;;;;;;;;;;;;4979222;28;19964;-59
2022/10/11 16:15:51;;;;;;;;;;;;;;;;;;4956519;28;20064;-59
2022/10/11 16:18:19;;;;;;;;;;;;;;;;;;4964659;28;19918;-59
2022/10/11 16:20:45;;;;;;;;;;;;;;;;;;4972701;28;19926;-59
2022/10/11 16:23:11;;;;;;;;;;;;;;;;;;4974076;28;19918;-58
2022/10/11 16:25:37;;;;;;;;;;;;;;;;;;4962414;28;19938;-57
2022/10/11 16:28:02;;;;;;;;;;;;;;;;;;4960273;28;19983;-57
2022/10/11 16:30:28;;;;;;;;;;;;;;;;;;4966062;28;19918;-57
2022/10/11 16:32:53;;;;;;;;;;;;;;;;;;4958417;28;19933;-57
2022/10/11 16:35:18;;;;;;;;;;;;;;;;;;4961283;28;19941;-58
2022/10/11 16:37:44;;;;;;;;;;;;;;;;;;4955806;28;20391;-58
2022/10/11 16:40:10;;;;;;;;;;;;;;;;;;4958325;28;19971;-58
2022/10/11 16:42:36;;;;;;;;;;;;;;;;;;4968060;28;19918;-57
2022/10/11 16:45:02;;;;;;;;;;;;;;;;;;4970103;28;19937;-57
2022/10/11 16:47:27;;;;;;;;;;;;;;;;;;4963394;28;19918;-58
2022/10/11 16:49:53;;;;;;;;;;;;;;;;;;4955375;28;19926;-58
2022/10/11 16:52:18;;;;;;;;;;;;;;;;;;4960484;28;19925;-58